Time;durP1;ratioP1;P1;durP2;ratioP2;P2;SDS_P1;SDS_P2;PMS_P1;PMS_P2;Temp;Humidity;BMP_temperature;BMP_pressure;BME280_temperature;BME280_humidity;BME280_pressure;Samples;Min_cycle;Max_cycle;Signal;HPM_P1;HPM_P2
2022/11/27 00:01:38;;;;;;;435.00;171.90;;;;;;;-142.25;100.00;58004.16;4991684;28;20281;-60
2022/11/27 00:04:05;;;;;;;433.70;172.97;;;;;;;-142.25;100.00;58004.16;4992246;28;20331;-61
2022/11/27 00:06:31;;;;;;;424.57;159.60;;;;;;;-142.25;100.00;58004.16;4992044;28;20285;-61
2022/11/27 00:08:58;;;;;;;424.47;158.47;;;;;;;-142.25;100.00;58004.16;5007131;28;20732;-60
2022/11/27 00:11:25;;;;;;;420.43;160.27;;;;;;;-142.25;100.00;58004.16;4992097;28;20384;-60
2022/11/27 00:13:51;;;;;;;422.20;166.50;;;;;;;-142.25;100.00;58004.16;4992365;28;20763;-61
2022/11/27 00:16:19;;;;;;;416.30;158.17;;;;;;;-142.25;100.00;58004.16;4993918;28;20289;-61
2022/11/27 00:18:44;;;;;;;416.37;160.07;;;;;;;-142.25;100.00;58004.16;4991897;28;20378;-60
2022/11/27 00:21:13;;;;;;;412.70;149.10;;;;;;;-142.25;100.00;58004.16;4989469;28;20693;-62
2022/11/27 00:23:39;;;;;;;412.43;152.33;;;;;;;-142.25;100.00;58004.16;4990682;28;20092;-60
2022/11/27 00:26:06;;;;;;;410.23;145.30;;;;;;;-142.25;100.00;58004.16;4992119;28;20308;-61
2022/11/27 00:28:32;;;;;;;410.27;149.77;;;;;;;-142.25;100.00;58004.16;4992412;28;20309;-60
2022/11/27 00:31:03;;;;;;;406.60;145.47;;;;;;;-142.25;100.00;58004.16;4989605;28;20275;-62
2022/11/27 00:33:29;;;;;;;409.07;148.27;;;;;;;-142.25;100.00;58004.16;4991898;28;20285;-60
2022/11/27 00:35:55;;;;;;;406.43;144.57;;;;;;;-142.25;100.00;58004.16;4992788;28;20393;-61
2022/11/27 00:38:21;;;;;;;408.03;149.40;;;;;;;-142.25;100.00;58004.16;4988790;28;20289;-61
2022/11/27 00:40:46;;;;;;;405.90;145.67;;;;;;;-142.25;100.00;58004.16;4991094;28;20082;-60
2022/11/27 00:43:12;;;;;;;404.20;143.63;;;;;;;-142.25;100.00;58004.16;4992337;28;20165;-61
2022/11/27 00:45:38;;;;;;;403.77;143.53;;;;;;;-142.25;100.00;58004.16;4992275;28;20440;-61
2022/11/27 00:48:04;;;;;;;405.30;146.97;;;;;;;-142.25;100.00;58004.16;4992756;28;20558;-61
2022/11/27 00:50:31;;;;;;;405.90;148.93;;;;;;;-142.25;100.00;58004.16;4992142;28;20034;-60
2022/11/27 00:52:58;;;;;;;404.93;147.77;;;;;;;-142.25;100.00;58004.16;4991896;28;20296;-59
2022/11/27 00:55:24;;;;;;;404.53;145.20;;;;;;;-142.25;100.00;58004.16;4989220;28;20371;-60
2022/11/27 00:57:49;;;;;;;403.83;146.60;;;;;;;-142.25;100.00;58004.16;4991584;28;20692;-62
2022/11/27 01:00:15;;;;;;;404.40;144.43;;;;;;;-142.25;100.00;58004.16;4990655;28;20288;-62
2022/11/27 01:02:41;;;;;;;405.97;150.10;;;;;;;-142.25;100.00;58004.16;4991523;28;20045;-61
2022/11/27 01:05:07;;;;;;;405.70;143.80;;;;;;;-142.25;100.00;58004.16;4991546;28;20293;-62
2022/11/27 01:07:32;;;;;;;404.30;143.67;;;;;;;-142.25;100.00;58004.16;4991412;28;20097;-62
2022/11/27 01:09:58;;;;;;;403.47;143.17;;;;;;;-142.25;100.00;58004.16;4987533;28;20541;-62
2022/11/27 01:12:23;;;;;;;403.37;141.03;;;;;;;-142.25;100.00;58004.16;4991610;28;20538;-61
2022/11/27 01:14:49;;;;;;;402.97;142.30;;;;;;;-142.25;100.00;58004.16;4993682;28;20057;-61
2022/11/27 01:17:15;;;;;;;404.97;145.03;;;;;;;-142.25;100.00;58004.16;4990090;28;20042;-61
2022/11/27 01:19:40;;;;;;;406.03;145.13;;;;;;;-142.25;100.00;58004.16;4991458;28;20496;-61
2022/11/27 01:22:06;;;;;;;403.60;143.90;;;;;;;-142.25;100.00;58004.16;4990983;28;20050;-61
2022/11/27 01:24:32;;;;;;;404.70;146.80;;;;;;;-142.25;100.00;58004.16;4990194;28;20065;-62
2022/11/27 01:26:57;;;;;;;408.37;152.67;;;;;;;-142.25;100.00;58004.16;4990420;28;20041;-61
2022/11/27 01:29:23;;;;;;;404.57;146.40;;;;;;;-142.25;100.00;58004.16;4984651;28;20038;-62
2022/11/27 01:31:48;;;;;;;404.90;142.90;;;;;;;-142.25;100.00;58004.16;4985320;28;20046;-60
2022/11/27 01:34:16;;;;;;;402.17;140.60;;;;;;;-142.25;100.00;58004.16;4991050;28;20528;-60
2022/11/27 01:36:42;;;;;;;408.60;146.80;;;;;;;-142.25;100.00;58004.16;4986582;28;20073;-61
2022/11/27 01:39:14;;;;;;;401.97;138.50;;;;;;;-142.25;100.00;58004.16;4990246;28;20284;-59
2022/11/27 01:41:40;;;;;;;402.13;139.23;;;;;;;-142.25;100.00;58004.16;4992543;28;20599;-60
2022/11/27 01:44:24;;;;;;;402.50;139.03;;;;;;;-142.25;100.00;58004.16;4985698;28;20301;-59
2022/11/27 01:46:59;;;;;;;403.80;139.67;;;;;;;-142.25;100.00;58004.16;4987187;28;20042;-60
2022/11/27 01:49:30;;;;;;;403.27;135.73;;;;;;;-142.25;100.00;58004.16;4990132;28;20303;-60
2022/11/27 01:52:06;;;;;;;402.60;137.30;;;;;;;-142.25;100.00;58004.16;4988674;28;20595;-60
2022/11/27 01:54:41;;;;;;;403.87;137.57;;;;;;;-142.25;100.00;58004.16;4990917;28;20567;-60
2022/11/27 01:57:12;;;;;;;405.30;140.80;;;;;;;-142.25;100.00;58004.16;4985641;28;20604;-60
2022/11/27 01:59:38;;;;;;;407.20;145.00;;;;;;;-142.25;100.00;58004.16;4984000;28;20267;-61
2022/11/27 02:02:04;;;;;;;403.83;138.37;;;;;;;-142.25;100.00;58004.16;4987851;28;20290;-60
2022/11/27 02:04:30;;;;;;;404.63;135.83;;;;;;;-142.25;100.00;58004.16;4988128;28;20329;-60
2022/11/27 02:06:58;;;;;;;412.77;143.00;;;;;;;-142.25;100.00;58004.16;4987301;28;20382;-61
2022/11/27 02:09:25;;;;;;;403.53;137.63;;;;;;;-142.25;100.00;58004.16;4989065;28;20124;-60
2022/11/27 02:12:03;;;;;;;405.20;135.90;;;;;;;-142.25;100.00;58004.16;4990131;28;20312;-62
2022/11/27 02:14:38;;;;;;;402.30;132.77;;;;;;;-142.25;100.00;58004.16;4989076;28;20989;-62
2022/11/27 02:17:26;;;;;;;403.13;135.10;;;;;;;-142.25;100.00;58004.16;4988626;28;20388;-60
2022/11/27 02:20:22;;;;;;;402.63;134.73;;;;;;;-142.25;100.00;58004.16;4987842;28;20287;-61
2022/11/27 02:23:10;;;;;;;406.33;131.37;;;;;;;-142.25;100.00;58004.16;4990621;28;20753;-60
2022/11/27 02:25:53;;;;;;;403.23;130.93;;;;;;;-142.25;100.00;58004.16;4989015;28;20053;-60
2022/11/27 02:28:38;;;;;;;399.97;130.00;;;;;;;-142.25;100.00;58004.16;4990154;28;20301;-60
2022/11/27 02:31:28;;;;;;;399.03;129.30;;;;;;;-142.25;100.00;58004.16;4988646;28;20289;-59
2022/11/27 02:33:57;;;;;;;399.70;129.50;;;;;;;-142.25;100.00;58004.16;4988121;28;20696;-60
2022/11/27 02:36:28;;;;;;;405.53;131.37;;;;;;;-142.25;100.00;58004.16;4989718;28;20285;-61
2022/11/27 02:39:13;;;;;;;400.87;130.43;;;;;;;-142.25;100.00;58004.16;4988376;28;20278;-60
2022/11/27 02:41:52;;;;;;;400.55;129.70;;;;;;;-142.25;100.00;58004.16;4990435;28;20305;-61
2022/11/27 02:44:20;;;;;;;401.10;133.03;;;;;;;-142.25;100.00;58004.16;4986920;28;20058;-61
2022/11/27 02:46:47;;;;;;;403.73;130.77;;;;;;;-142.25;100.00;58004.16;4989928;28;20663;-61
2022/11/27 02:49:22;;;;;;;402.00;133.20;;;;;;;-142.25;100.00;58004.16;4989998;28;20398;-62
2022/11/27 02:51:54;;;;;;;404.63;131.63;;;;;;;-142.25;100.00;58004.16;4990758;28;20284;-61
2022/11/27 02:54:25;;;;;;;404.30;137.60;;;;;;;-142.25;100.00;58004.16;4987952;28;20506;-58
2022/11/27 02:56:53;;;;;;;405.83;136.33;;;;;;;-142.25;100.00;58004.16;4988346;28;20277;-59
2022/11/27 02:59:21;;;;;;;406.53;136.47;;;;;;;-142.25;100.00;58004.16;4987837;28;20312;-61
2022/11/27 03:01:57;;;;;;;405.30;133.37;;;;;;;-142.25;100.00;58004.16;4989790;28;20299;-61
2022/11/27 03:04:33;;;;;;;403.70;135.17;;;;;;;-142.25;100.00;58004.16;4984683;28;20799;-59
2022/11/27 03:07:05;;;;;;;399.23;132.00;;;;;;;-142.25;100.00;58004.16;4988524;28;20817;-59
2022/11/27 03:09:42;;;;;;;405.00;136.83;;;;;;;-142.25;100.00;58004.16;4988528;28;20293;-59
2022/11/27 03:12:10;;;;;;;405.50;138.37;;;;;;;-142.25;100.00;58004.16;4987702;28;20285;-59
2022/11/27 03:14:37;;;;;;;407.97;137.80;;;;;;;-142.25;100.00;58004.16;4982299;28;20316;-59
2022/11/27 03:17:15;;;;;;;402.57;136.80;;;;;;;-142.25;100.00;58004.16;4985427;28;20344;-59
2022/11/27 03:20:02;;;;;;;403.73;135.47;;;;;;;-142.25;100.00;58004.16;4988783;28;20289;-59
2022/11/27 03:22:30;;;;;;;403.87;136.33;;;;;;;-142.25;100.00;58004.16;4991179;28;20340;-59
2022/11/27 03:24:56;;;;;;;404.33;137.10;;;;;;;-142.25;100.00;58004.16;4989113;28;20783;-59
2022/11/27 03:27:29;;;;;;;405.90;135.57;;;;;;;-142.25;100.00;58004.16;4987376;28;20297;-59
2022/11/27 03:29:58;;;;;;;403.43;135.23;;;;;;;-142.25;100.00;58004.16;4988710;28;20076;-59
2022/11/27 03:32:26;;;;;;;404.03;138.93;;;;;;;-142.25;100.00;58004.16;4990383;28;20360;-60
2022/11/27 03:34:52;;;;;;;407.87;138.63;;;;;;;-142.25;100.00;58004.16;4988666;28;20285;-59
2022/11/27 03:37:18;;;;;;;403.13;139.17;;;;;;;-142.25;100.00;58004.16;4984107;28;20720;-60
2022/11/27 03:39:44;;;;;;;406.53;136.30;;;;;;;-142.25;100.00;58004.16;4985247;28;20281;-58
2022/11/27 03:42:42;;;;;;;399.70;132.00;;;;;;;-142.25;100.00;58004.16;4983926;28;20352;-59
2022/11/27 03:45:26;;;;;;;402.20;133.07;;;;;;;-142.25;100.00;58004.16;4988274;28;20468;-60
2022/11/27 03:48:10;;;;;;;400.80;130.77;;;;;;;-142.25;100.00;58004.16;4989019;28;20297;-60
2022/11/27 03:51:14;;;;;;;401.70;132.10;;;;;;;-142.25;100.00;58004.16;4990061;28;20315;-60
2022/11/27 03:54:09;;;;;;;398.93;132.60;;;;;;;-142.25;100.00;58004.16;4989505;28;20277;-59
2022/11/27 03:56:44;;;;;;;297.13;96.32;;;;;;;-142.25;100.00;58004.16;4988900;28;20369;-62
2022/11/27 03:59:19;;;;;;;400.55;128.25;;;;;;;-142.25;100.00;58004.16;4989749;28;20375;-60
2022/11/27 04:01:45;;;;;;;403.65;133.85;;;;;;;-142.25;100.00;58004.16;4986030;28;20042;-60
2022/11/27 04:04:11;;;;;;;410.17;138.63;;;;;;;-142.25;100.00;58004.16;4983878;28;20065;-60
2022/11/27 04:06:37;;;;;;;413.53;138.80;;;;;;;-142.25;100.00;58004.16;4987477;28;20554;-60
2022/11/27 04:09:03;;;;;;;411.90;137.63;;;;;;;-142.25;100.00;58004.16;4991649;28;20568;-62
2022/11/27 04:11:29;;;;;;;406.13;133.77;;;;;;;-142.25;100.00;58004.16;4991643;28;20520;-60
2022/11/27 04:13:55;;;;;;;408.27;134.10;;;;;;;-142.25;100.00;58004.16;4988948;28;20289;-61
2022/11/27 04:16:21;;;;;;;422.57;135.47;;;;;;;-142.25;100.00;58004.16;4991014;28;20814;-61
2022/11/27 04:18:46;;;;;;;425.40;134.80;;;;;;;-142.25;100.00;58004.16;4990672;28;20124;-60
2022/11/27 04:21:12;;;;;;;423.30;136.23;;;;;;;-142.25;100.00;58004.16;4989835;28;20923;-61
2022/11/27 04:23:39;;;;;;;425.43;141.53;;;;;;;-142.25;100.00;58004.16;4987817;28;20046;-61
2022/11/27 04:26:05;;;;;;;420.77;132.30;;;;;;;-142.25;100.00;58004.16;4989706;28;20280;-62
2022/11/27 04:28:31;;;;;;;418.80;135.10;;;;;;;-142.25;100.00;58004.16;4989082;28;20312;-61
2022/11/27 04:30:57;;;;;;;414.67;132.97;;;;;;;-142.25;100.00;58004.16;4994799;28;20046;-61
2022/11/27 04:33:23;;;;;;;415.70;132.70;;;;;;;-142.25;100.00;58004.16;4993265;28;20588;-61
2022/11/27 04:35:50;;;;;;;417.57;131.67;;;;;;;-142.25;100.00;58004.16;4993013;28;20372;-61
2022/11/27 04:38:17;;;;;;;409.53;129.70;;;;;;;-142.25;100.00;58004.16;4987550;28;20042;-61
2022/11/27 04:40:42;;;;;;;408.80;131.17;;;;;;;-142.25;100.00;58004.16;4993510;28;20505;-61
2022/11/27 04:43:08;;;;;;;405.90;128.53;;;;;;;-142.25;100.00;58004.16;4994163;28;20293;-62
2022/11/27 04:45:34;;;;;;;405.47;127.17;;;;;;;-142.25;100.00;58004.16;4989320;28;20081;-61
2022/11/27 04:47:59;;;;;;;405.80;134.60;;;;;;;-142.25;100.00;58004.16;4988136;28;20081;-62
2022/11/27 04:50:25;;;;;;;408.03;131.57;;;;;;;-142.25;100.00;58004.16;4988575;28;20416;-62
2022/11/27 04:52:53;;;;;;;412.60;134.43;;;;;;;-142.25;100.00;58004.16;4991608;28;20068;-60
2022/11/27 04:55:19;;;;;;;411.43;129.63;;;;;;;-142.25;100.00;58004.16;4992121;28;20041;-60
2022/11/27 04:57:45;;;;;;;412.20;131.47;;;;;;;-142.25;100.00;58004.16;4991845;28;20688;-60
2022/11/27 05:00:11;;;;;;;409.50;130.40;;;;;;;-142.25;100.00;58004.16;4995584;28;20038;-59
2022/11/27 05:02:36;;;;;;;409.93;128.20;;;;;;;-142.25;100.00;58004.16;4995096;28;20161;-61
2022/11/27 05:05:02;;;;;;;412.53;138.33;;;;;;;-142.25;100.00;58004.16;4989284;28;20296;-62
2022/11/27 05:07:28;;;;;;;409.73;129.03;;;;;;;-142.25;100.00;58004.16;4992207;28;20050;-59
2022/11/27 05:09:53;;;;;;;405.07;128.50;;;;;;;-142.25;100.00;58004.16;4993705;28;20652;-61
2022/11/27 05:12:19;;;;;;;408.27;129.93;;;;;;;-142.25;100.00;58004.16;4993919;28;20038;-61
2022/11/27 05:14:45;;;;;;;407.13;129.53;;;;;;;-142.25;100.00;58004.16;4990127;28;20051;-60
2022/11/27 05:17:10;;;;;;;406.23;129.37;;;;;;;-142.25;100.00;58004.16;4973481;28;20050;-61
2022/11/27 05:19:36;;;;;;;405.73;129.97;;;;;;;-142.25;100.00;58004.16;4991663;28;20042;-60
2022/11/27 05:22:01;;;;;;;404.63;128.13;;;;;;;-142.25;100.00;58004.16;4992487;28;20058;-59
2022/11/27 05:24:28;;;;;;;407.00;128.73;;;;;;;-142.25;100.00;58004.16;4989880;28;20046;-60
2022/11/27 05:26:56;;;;;;;405.20;130.07;;;;;;;-142.25;100.00;58004.16;4992898;28;20438;-61
2022/11/27 05:29:22;;;;;;;406.50;129.60;;;;;;;-142.25;100.00;58004.16;4991652;28;20691;-60
2022/11/27 05:31:48;;;;;;;402.63;127.87;;;;;;;-142.25;100.00;58004.16;4993466;28;20382;-60
2022/11/27 05:34:14;;;;;;;405.53;134.33;;;;;;;-142.25;100.00;58004.16;4986816;28;20285;-60
2022/11/27 05:36:40;;;;;;;404.70;131.17;;;;;;;-142.25;100.00;58004.16;4986725;28;20030;-60
2022/11/27 05:39:07;;;;;;;403.27;127.33;;;;;;;-142.25;100.00;58004.16;4990188;28;20041;-60
2022/11/27 05:41:34;;;;;;;404.80;128.20;;;;;;;-142.25;100.00;58004.16;4991356;28;20309;-60
2022/11/27 05:44:00;;;;;;;406.97;126.03;;;;;;;-142.25;100.00;58004.16;4993238;28;20804;-60
2022/11/27 05:46:25;;;;;;;404.00;126.57;;;;;;;-142.25;100.00;58004.16;4993029;28;20296;-60
2022/11/27 05:48:51;;;;;;;405.80;123.40;;;;;;;-142.25;100.00;58004.16;4992640;28;20027;-58
2022/11/27 05:51:17;;;;;;;405.37;131.93;;;;;;;-142.25;100.00;58004.16;4991236;28;20504;-61
2022/11/27 05:53:44;;;;;;;405.67;131.83;;;;;;;-142.25;100.00;58004.16;4985844;28;20100;-62
2022/11/27 05:56:15;;;;;;;403.63;127.00;;;;;;;-142.25;100.00;58004.16;4985947;28;20273;-61
2022/11/27 05:58:43;;;;;;;403.67;128.27;;;;;;;-142.25;100.00;58004.16;4992186;28;20062;-62
2022/11/27 06:01:11;;;;;;;402.63;124.07;;;;;;;-142.25;100.00;58004.16;4989618;28;20306;-59
2022/11/27 06:03:37;;;;;;;402.60;122.93;;;;;;;-142.25;100.00;58004.16;4990813;28;20270;-61
2022/11/27 06:06:08;;;;;;;401.27;124.03;;;;;;;-142.25;100.00;58004.16;4992267;28;20293;-61
2022/11/27 06:08:36;;;;;;;403.87;128.30;;;;;;;-142.25;100.00;58004.16;4989700;28;20289;-60
2022/11/27 06:11:08;;;;;;;403.47;126.97;;;;;;;-142.25;100.00;58004.16;4991942;28;20375;-60
2022/11/27 06:13:34;;;;;;;400.63;125.23;;;;;;;-142.25;100.00;58004.16;4990699;28;20277;-60
2022/11/27 06:16:05;;;;;;;405.83;126.63;;;;;;;-142.25;100.00;58004.16;4986358;28;20288;-60
2022/11/27 06:18:30;;;;;;;402.73;125.73;;;;;;;-142.25;100.00;58004.16;4992312;28;20120;-59
2022/11/27 06:20:56;;;;;;;410.50;135.37;;;;;;;-142.25;100.00;58004.16;4988796;28;20273;-60
2022/11/27 06:23:21;;;;;;;406.60;134.40;;;;;;;-142.25;100.00;58004.16;4983434;28;20417;-63
2022/11/27 06:25:46;;;;;;;405.27;128.13;;;;;;;-142.25;100.00;58004.16;4985548;28;20050;-63
2022/11/27 06:28:12;;;;;;;401.93;125.60;;;;;;;-142.25;100.00;58004.16;4990254;28;20121;-63
2022/11/27 06:30:38;;;;;;;403.70;125.23;;;;;;;-142.25;100.00;58004.16;4990183;28;20410;-60
2022/11/27 06:33:03;;;;;;;406.80;129.57;;;;;;;-142.25;100.00;58004.16;4973757;28;20096;-60
2022/11/27 06:35:29;;;;;;;403.97;128.07;;;;;;;-142.25;100.00;58004.16;4990692;28;20058;-60
2022/11/27 06:37:54;;;;;;;405.27;127.60;;;;;;;-142.25;100.00;58004.16;4990863;28;20045;-60
2022/11/27 06:40:20;;;;;;;401.70;128.27;;;;;;;-142.25;100.00;58004.16;4990144;28;20042;-61
2022/11/27 06:42:46;;;;;;;406.10;126.27;;;;;;;-142.25;100.00;58004.16;4990307;28;20045;-62
2022/11/27 06:45:12;;;;;;;402.23;123.60;;;;;;;-142.25;100.00;58004.16;4990524;28;20050;-63
2022/11/27 06:47:38;;;;;;;402.63;128.50;;;;;;;-142.25;100.00;58004.16;4988732;28;20046;-60
2022/11/27 06:50:05;;;;;;;403.17;126.73;;;;;;;-142.25;100.00;58004.16;4989622;28;20759;-61
2022/11/27 06:52:30;;;;;;;401.17;127.83;;;;;;;-142.25;100.00;58004.16;4988371;28;20127;-60
2022/11/27 06:54:56;;;;;;;403.90;128.80;;;;;;;-142.25;100.00;58004.16;4988665;28;20297;-61
2022/11/27 06:57:21;;;;;;;403.83;131.53;;;;;;;-142.25;100.00;58004.16;4991330;28;20062;-61
2022/11/27 06:59:47;;;;;;;408.20;130.43;;;;;;;-142.25;100.00;58004.16;4990470;28;20042;-62
2022/11/27 07:02:14;;;;;;;404.97;136.53;;;;;;;-142.25;100.00;58004.16;4989509;28;20046;-61
2022/11/27 07:04:40;;;;;;;404.33;132.53;;;;;;;-142.25;100.00;58004.16;4985502;28;20285;-61
2022/11/27 07:07:05;;;;;;;404.37;132.90;;;;;;;-142.25;100.00;58004.16;4983805;28;20709;-59
2022/11/27 07:09:31;;;;;;;405.30;137.10;;;;;;;-142.25;100.00;58004.16;4987554;28;20041;-60
2022/11/27 07:11:57;;;;;;;408.83;137.57;;;;;;;-142.25;100.00;58004.16;4985287;28;20038;-60
2022/11/27 07:14:22;;;;;;;409.63;139.10;;;;;;;-142.25;100.00;58004.16;4984269;28;20493;-60
2022/11/27 07:16:48;;;;;;;405.67;133.83;;;;;;;-142.25;100.00;58004.16;4989587;28;20096;-60
2022/11/27 07:19:13;;;;;;;404.87;134.30;;;;;;;-142.25;100.00;58004.16;4990392;28;20475;-65
2022/11/27 07:21:39;;;;;;;407.97;139.53;;;;;;;-142.25;100.00;58004.16;4988718;28;20046;-61
2022/11/27 07:24:05;;;;;;;407.73;137.10;;;;;;;-142.25;100.00;58004.16;4983960;28;20394;-61
2022/11/27 07:26:31;;;;;;;403.13;130.70;;;;;;;-142.25;100.00;58004.16;4986219;28;20077;-61
2022/11/27 07:28:57;;;;;;;404.33;136.97;;;;;;;-142.25;100.00;58004.16;4989974;28;20046;-58
2022/11/27 07:31:28;;;;;;;412.13;143.63;;;;;;;-142.25;100.00;58004.16;4989687;28;20046;-60
2022/11/27 07:33:55;;;;;;;408.73;137.07;;;;;;;-142.25;100.00;58004.16;4989378;28;20057;-62
2022/11/27 07:36:23;;;;;;;408.53;150.03;;;;;;;-142.25;100.00;58004.16;4990423;28;20316;-61
2022/11/27 07:38:49;;;;;;;411.27;143.63;;;;;;;-142.25;100.00;58004.16;4987663;28;20297;-61
2022/11/27 07:41:15;;;;;;;413.30;152.70;;;;;;;-142.25;100.00;58004.16;4990346;28;20277;-61
2022/11/27 07:43:42;;;;;;;410.40;142.80;;;;;;;-142.25;100.00;58004.16;4990797;28;20295;-61
2022/11/27 07:46:17;;;;;;;408.80;140.90;;;;;;;-142.25;100.00;58004.16;5006192;28;20054;-63
2022/11/27 07:48:43;;;;;;;410.55;146.57;;;;;;;-142.25;100.00;58004.16;4987055;28;20804;-62
2022/11/27 07:51:10;;;;;;;413.43;143.23;;;;;;;-142.25;100.00;58004.16;4985759;28;20538;-63
2022/11/27 07:53:37;;;;;;;407.80;143.03;;;;;;;-142.25;100.00;58004.16;5002137;28;20204;-61
2022/11/27 07:56:04;;;;;;;410.87;146.17;;;;;;;-142.25;100.00;58004.16;4981793;28;20293;-63
2022/11/27 07:58:33;;;;;;;410.57;148.87;;;;;;;-142.25;100.00;58004.16;4984363;28;20662;-63
2022/11/27 08:00:59;;;;;;;411.27;147.50;;;;;;;-142.25;100.00;58004.16;4989735;28;20755;-63
2022/11/27 08:03:25;;;;;;;411.97;146.60;;;;;;;-142.25;100.00;58004.16;4989142;28;20465;-63
2022/11/27 08:05:51;;;;;;;415.87;151.10;;;;;;;-142.25;100.00;58004.16;4992852;28;20042;-61
2022/11/27 08:08:16;;;;;;;415.13;151.10;;;;;;;-142.25;100.00;58004.16;4990032;28;20070;-62
2022/11/27 08:10:42;;;;;;;418.97;159.87;;;;;;;-142.25;100.00;58004.16;4989284;28;20507;-62
2022/11/27 08:13:09;;;;;;;409.27;155.73;;;;;;;-142.25;100.00;58004.16;4987873;28;20338;-62
2022/11/27 08:15:35;;;;;;;415.30;166.70;;;;;;;-142.25;100.00;58004.16;4991087;28;20033;-61
2022/11/27 08:18:01;;;;;;;412.13;157.30;;;;;;;-142.25;100.00;58004.16;4987718;28;20289;-62
2022/11/27 08:20:26;;;;;;;412.17;159.40;;;;;;;-142.25;100.00;58004.16;4987741;28;20308;-62
2022/11/27 08:22:52;;;;;;;413.33;161.67;;;;;;;-142.25;100.00;58004.16;4987018;28;20544;-61
2022/11/27 08:25:18;;;;;;;415.00;157.80;;;;;;;-142.25;100.00;58004.16;4988753;28;20355;-61
2022/11/27 08:27:43;;;;;;;414.60;161.33;;;;;;;-142.25;100.00;58004.16;4992946;28;20053;-62
2022/11/27 08:30:10;;;;;;;414.63;161.33;;;;;;;-142.25;100.00;58004.16;4993342;28;20058;-62
2022/11/27 08:32:41;;;;;;;410.03;155.60;;;;;;;-142.25;100.00;58004.16;4994177;28;20309;-60
2022/11/27 08:35:07;;;;;;;413.63;159.43;;;;;;;-142.25;100.00;58004.16;4988356;28;20380;-61
2022/11/27 08:37:33;;;;;;;413.40;158.90;;;;;;;-142.25;100.00;58004.16;4987399;28;20284;-60
2022/11/27 08:39:58;;;;;;;414.70;165.63;;;;;;;-142.25;100.00;58004.16;4984755;28;20300;-61
2022/11/27 08:42:24;;;;;;;414.53;166.50;;;;;;;-142.25;100.00;58004.16;4988635;28;20041;-62
2022/11/27 08:44:49;;;;;;;418.83;167.73;;;;;;;-142.25;100.00;58004.16;4985082;28;20039;-61
2022/11/27 08:47:15;;;;;;;413.17;160.13;;;;;;;-142.25;100.00;58004.16;4984063;28;20058;-60
2022/11/27 08:49:42;;;;;;;413.73;166.70;;;;;;;-142.25;100.00;58004.16;4993311;28;20053;-62
2022/11/27 08:52:08;;;;;;;414.57;166.77;;;;;;;-142.25;100.00;58004.16;4985839;28;20051;-61
2022/11/27 08:54:34;;;;;;;419.77;178.20;;;;;;;-142.25;100.00;58004.16;4989871;28;20371;-62
2022/11/27 08:57:00;;;;;;;417.40;179.07;;;;;;;-142.25;100.00;58004.16;4991378;28;20837;-61
2022/11/27 08:59:25;;;;;;;422.17;185.70;;;;;;;-142.25;100.00;58004.16;4985640;28;20056;-61
2022/11/27 09:01:51;;;;;;;422.13;186.03;;;;;;;-142.25;100.00;58004.16;4988606;28;20625;-62
2022/11/27 09:04:17;;;;;;;421.07;187.87;;;;;;;-142.25;100.00;58004.16;4992722;28;20061;-61
2022/11/27 09:06:43;;;;;;;423.10;193.70;;;;;;;-142.25;100.00;58004.16;4991448;28;20061;-61
2022/11/27 09:09:09;;;;;;;426.30;193.33;;;;;;;-142.25;100.00;58004.16;4993645;28;20141;-62
2022/11/27 09:11:35;;;;;;;434.53;214.63;;;;;;;-142.25;100.00;58004.16;4991895;28;20548;-61
2022/11/27 09:14:02;;;;;;;425.03;199.30;;;;;;;-142.25;100.00;58004.16;4993484;28;20054;-62
2022/11/27 09:16:29;;;;;;;425.80;207.70;;;;;;;-142.25;100.00;58004.16;4989297;28;20685;-62
2022/11/27 09:18:56;;;;;;;428.83;206.43;;;;;;;-142.25;100.00;58004.16;4992143;28;20381;-61
2022/11/27 09:21:26;;;;;;;428.97;210.00;;;;;;;-142.25;100.00;58004.16;5006784;28;20764;-61
2022/11/27 09:23:59;;;;;;;430.70;207.53;;;;;;;-142.25;100.00;58004.16;4992154;28;20288;-62
2022/11/27 09:26:26;;;;;;;430.50;212.90;;;;;;;-142.25;100.00;58004.16;4984119;28;20296;-60
2022/11/27 09:28:54;;;;;;;431.20;226.03;;;;;;;-142.25;100.00;58004.16;4982826;28;20791;-62
2022/11/27 09:31:20;;;;;;;429.50;223.83;;;;;;;-142.25;100.00;58004.16;4989244;28;20300;-64
2022/11/27 09:33:46;;;;;;;432.40;227.70;;;;;;;-142.25;100.00;58004.16;4985777;28;20784;-61
2022/11/27 09:36:15;;;;;;;434.97;228.20;;;;;;;-142.25;100.00;58004.16;4986302;28;20293;-61
2022/11/27 09:38:41;;;;;;;433.80;231.57;;;;;;;-142.25;100.00;58004.16;4982131;28;20042;-61
2022/11/27 09:41:10;;;;;;;436.50;223.00;;;;;;;-142.25;100.00;58004.16;4987809;28;20809;-60
2022/11/27 09:43:56;;;;;;;430.53;224.30;;;;;;;-142.25;100.00;58004.16;4990087;28;20284;-61
2022/11/27 09:46:30;;;;;;;;;;;;;;;-142.25;100.00;58004.16;4993316;28;20281;-62
2022/11/27 09:48:59;;;;;;;436.30;228.30;;;;;;;-142.25;100.00;58004.16;4987961;28;20044;-61
2022/11/27 09:51:35;;;;;;;431.40;227.00;;;;;;;-142.25;100.00;58004.16;4991074;28;20733;-63
2022/11/27 09:54:14;;;;;;;433.63;225.83;;;;;;;-142.25;100.00;58004.16;4989935;28;20285;-61
2022/11/27 09:56:44;;;;;;;439.40;240.10;;;;;;;-142.25;100.00;58004.16;5004629;28;20297;-72
2022/11/27 09:59:20;;;;;;;433.53;236.40;;;;;;;-142.25;100.00;58004.16;4989415;28;21042;-61
2022/11/27 10:01:47;;;;;;;438.20;242.53;;;;;;;-142.25;100.00;58004.16;4990712;28;20278;-62
2022/11/27 10:04:16;;;;;;;441.03;242.20;;;;;;;-142.25;100.00;58004.16;4992066;28;20312;-62
2022/11/27 10:07:06;;;;;;;437.07;241.53;;;;;;;-142.25;100.00;58004.16;4990432;28;20042;-62
2022/11/27 10:10:19;;;;;;;440.07;250.87;;;;;;;-142.25;100.00;58004.16;4991726;28;20293;-60
2022/11/27 10:13:03;;;;;;;438.17;256.43;;;;;;;-142.25;100.00;58004.16;4983960;28;20374;-60
2022/11/27 10:15:50;;;;;;;438.70;241.63;;;;;;;-142.25;100.00;58004.16;5006585;28;20328;-62
2022/11/27 10:18:54;;;;;;;441.57;250.43;;;;;;;-142.25;100.00;58004.16;5004018;28;20752;-60
2022/11/27 10:21:37;;;;;;;439.47;246.10;;;;;;;-142.25;100.00;58004.16;4926655;28;20437;-63
2022/11/27 10:24:16;;;;;;;436.57;246.00;;;;;;;-142.25;100.00;58004.16;4944727;28;20313;-60
2022/11/27 10:26:47;;;;;;;437.37;249.60;;;;;;;-142.25;100.00;58004.16;4942824;28;20180;-61
2022/11/27 10:29:39;;;;;;;438.57;249.57;;;;;;;-142.25;100.00;58004.16;4946094;28;20307;-60
2022/11/27 10:32:16;;;;;;;438.13;244.43;;;;;;;-142.25;100.00;58004.16;4945476;28;20322;-60
2022/11/27 10:34:55;;;;;;;434.40;243.10;;;;;;;-142.25;100.00;58004.16;4929572;28;20309;-60
2022/11/27 10:37:32;;;;;;;440.90;253.40;;;;;;;-142.25;100.00;58004.16;4945062;28;20314;-60
2022/11/27 10:40:25;;;;;;;438.17;246.70;;;;;;;-142.25;100.00;58004.16;4945142;28;20061;-59
2022/11/27 10:42:53;;;;;;;439.93;251.33;;;;;;;-142.25;100.00;58004.16;4944497;28;20678;-60
2022/11/27 10:45:38;;;;;;;439.40;250.50;;;;;;;-142.25;100.00;58004.16;4945587;28;20046;-61
2022/11/27 10:48:05;;;;;;;439.63;253.35;;;;;;;-142.25;100.00;58004.16;4940846;28;20307;-60
2022/11/27 10:50:32;;;;;;;438.80;256.07;;;;;;;-142.25;100.00;58004.16;4940661;28;20059;-59